createdAt,value
2018-03-25T06:29:23.135Z,9.73
2018-03-25T06:31:50.783Z,11.13
2018-03-25T06:34:17.285Z,8.63
2018-03-25T06:36:44.178Z,13.20
2018-03-25T06:39:11.167Z,12.10
2018-03-25T06:41:37.455Z,85.87
2018-03-25T06:44:04.530Z,48.50
2018-03-25T06:46:31.091Z,42.67
2018-03-25T06:48:57.376Z,34.57
2018-03-25T06:51:23.858Z,33.93
2018-03-25T06:53:50.210Z,35.53
2018-03-25T06:56:17.194Z,31.40
2018-03-25T06:58:43.972Z,31.60
2018-03-25T07:01:10.262Z,24.87
2018-03-25T07:03:36.739Z,26.27
2018-03-25T07:06:03.273Z,23.37
2018-03-25T07:08:29.814Z,26.33
2018-03-25T07:10:56.638Z,22.40
2018-03-25T07:13:23.088Z,26.50
2018-03-25T07:15:49.439Z,20.03
2018-03-25T07:18:15.701Z,23.70
2018-03-25T07:20:43.203Z,21.03
2018-03-25T07:23:09.741Z,21.67
2018-03-25T07:25:36.573Z,22.10
2018-03-25T07:28:02.858Z,17.67
2018-03-25T07:30:29.951Z,18.27
2018-03-25T07:32:56.499Z,19.93
2018-03-25T07:35:23.030Z,19.53
2018-03-25T07:37:49.378Z,20.23
2018-03-25T07:40:16.331Z,18.47
2018-03-25T07:42:43.437Z,16.43
2018-03-25T08:16:33.839Z,7.67
2018-03-25T08:19:08.666Z,8.27
2018-03-25T08:21:41.681Z,11.17
2018-03-25T08:24:16.858Z,12.83
2018-03-25T08:26:46.475Z,16.67
2018-03-25T08:29:21.256Z,13.10
2018-03-25T08:31:55.994Z,12.97
2018-03-25T08:34:23.171Z,11.30
2018-03-25T08:36:51.541Z,23.53
2018-03-25T08:39:21.280Z,12.73
2018-03-25T08:41:53.601Z,15.70
2018-03-25T08:44:24.258Z,13.03
2018-03-25T08:49:27.988Z,14.20
2018-03-25T08:51:59.828Z,8.53
2018-03-25T08:54:32.365Z,16.10
2018-03-25T08:57:04.253Z,14.37
2018-03-25T08:59:41.668Z,11.87
2018-03-25T09:02:14.864Z,11.90
2018-03-25T09:04:45.057Z,11.50
2018-03-25T09:07:20.080Z,13.27
2018-03-25T09:09:47.669Z,15.90
2018-03-25T09:12:14.565Z,36.63
2018-03-25T09:14:43.735Z,32.20
2018-03-25T09:17:14.627Z,53.87
2018-03-25T09:19:45.526Z,59.53
